sensor_id;sensor_type;location;lat;lon;timestamp;temperature;humidity
68139;DHT22;54940;50.842;4.410;2022-10-26T00:00:23;14.40;99.90
68139;DHT22;54940;50.842;4.410;2022-10-26T00:02:48;14.40;99.90
68139;DHT22;54940;50.842;4.410;2022-10-26T00:05:14;14.40;99.90
68139;DHT22;54940;50.842;4.410;2022-10-26T00:07:39;14.30;99.90
68139;DHT22;54940;50.842;4.410;2022-10-26T00:10:05;14.30;99.90
68139;DHT22;54940;50.842;4.410;2022-10-26T00:12:31;14.30;99.90
68139;DHT22;54940;50.842;4.410;2022-10-26T00:14:57;14.30;99.90
68139;DHT22;54940;50.842;4.410;2022-10-26T00:17:22;14.30;99.90
68139;DHT22;54940;50.842;4.410;2022-10-26T00:19:48;14.20;99.90
68139;DHT22;54940;50.842;4.410;2022-10-26T00:22:14;14.30;99.90
68139;DHT22;54940;50.842;4.410;2022-10-26T00:24:39;14.30;99.90
68139;DHT22;54940;50.842;4.410;2022-10-26T00:27:05;14.30;99.90
68139;DHT22;54940;50.842;4.410;2022-10-26T00:29:31;14.30;99.90
68139;DHT22;54940;50.842;4.410;2022-10-26T00:31:56;14.40;99.90
68139;DHT22;54940;50.842;4.410;2022-10-26T00:34:22;14.40;99.90
68139;DHT22;54940;50.842;4.410;2022-10-26T00:36:47;14.30;99.90
68139;DHT22;54940;50.842;4.410;2022-10-26T00:39:13;14.40;99.90
68139;DHT22;54940;50.842;4.410;2022-10-26T00:41:39;14.40;99.90
68139;DHT22;54940;50.842;4.410;2022-10-26T00:47:17;14.40;99.90
68139;DHT22;54940;50.842;4.410;2022-10-26T00:49:47;14.40;99.90
68139;DHT22;54940;50.842;4.410;2022-10-26T00:52:14;14.40;99.90
68139;DHT22;54940;50.842;4.410;2022-10-26T00:54:42;14.40;99.90
68139;DHT22;54940;50.842;4.410;2022-10-26T00:57:10;14.30;99.90
68139;DHT22;54940;50.842;4.410;2022-10-26T00:59:36;14.30;99.90
68139;DHT22;54940;50.842;4.410;2022-10-26T01:02:02;14.30;99.90
68139;DHT22;54940;50.842;4.410;2022-10-26T01:04:27;14.40;99.90
68139;DHT22;54940;50.842;4.410;2022-10-26T01:06:53;14.40;99.90
68139;DHT22;54940;50.842;4.410;2022-10-26T01:09:20;14.40;99.90
68139;DHT22;54940;50.842;4.410;2022-10-26T01:11:46;14.40;99.90
68139;DHT22;54940;50.842;4.410;2022-10-26T01:14:13;14.40;99.90
68139;DHT22;54940;50.842;4.410;2022-10-26T01:19:45;14.40;99.90
68139;DHT22;54940;50.842;4.410;2022-10-26T01:27:50;14.30;99.90
68139;DHT22;54940;50.842;4.410;2022-10-26T01:35:37;14.30;99.90
68139;DHT22;54940;50.842;4.410;2022-10-26T01:38:13;14.30;99.90
68139;DHT22;54940;50.842;4.410;2022-10-26T01:40:45;14.30;99.90
68139;DHT22;54940;50.842;4.410;2022-10-26T01:43:14;14.30;99.90
68139;DHT22;54940;50.842;4.410;2022-10-26T01:45:43;14.30;99.90
68139;DHT22;54940;50.842;4.410;2022-10-26T01:48:13;14.30;99.90
68139;DHT22;54940;50.842;4.410;2022-10-26T01:50:42;14.30;99.90
68139;DHT22;54940;50.842;4.410;2022-10-26T01:53:13;14.30;99.90
68139;DHT22;54940;50.842;4.410;2022-10-26T01:55:47;14.30;99.90
68139;DHT22;54940;50.842;4.410;2022-10-26T01:58:36;14.30;99.90
68139;DHT22;54940;50.842;4.410;2022-10-26T02:11:52;14.30;99.90
68139;DHT22;54940;50.842;4.410;2022-10-26T02:14:48;14.30;99.90
68139;DHT22;54940;50.842;4.410;2022-10-26T02:17:27;14.30;99.90
68139;DHT22;54940;50.842;4.410;2022-10-26T02:20:04;14.40;99.90
68139;DHT22;54940;50.842;4.410;2022-10-26T02:22:38;14.40;99.90
68139;DHT22;54940;50.842;4.410;2022-10-26T02:25:08;14.40;99.90
68139;DHT22;54940;50.842;4.410;2022-10-26T02:27:39;14.40;99.90
68139;DHT22;54940;50.842;4.410;2022-10-26T02:30:06;14.40;99.90
68139;DHT22;54940;50.842;4.410;2022-10-26T02:32:35;14.40;99.90
68139;DHT22;54940;50.842;4.410;2022-10-26T02:35:04;14.40;99.90
68139;DHT22;54940;50.842;4.410;2022-10-26T02:37:32;14.50;99.90
68139;DHT22;54940;50.842;4.410;2022-10-26T02:40:00;14.50;99.90
68139;DHT22;54940;50.842;4.410;2022-10-26T02:42:27;14.50;99.90
68139;DHT22;54940;50.842;4.410;2022-10-26T02:45:00;14.50;99.90
68139;DHT22;54940;50.842;4.410;2022-10-26T02:47:27;14.50;99.90
68139;DHT22;54940;50.842;4.410;2022-10-26T02:49:53;14.50;99.90
68139;DHT22;54940;50.842;4.410;2022-10-26T02:55:06;14.50;99.90
68139;DHT22;54940;50.842;4.410;2022-10-26T02:57:38;14.60;99.90
68139;DHT22;54940;50.842;4.410;2022-10-26T03:00:09;14.60;99.90
68139;DHT22;54940;50.842;4.410;2022-10-26T03:02:36;14.50;99.90
68139;DHT22;54940;50.842;4.410;2022-10-26T03:05:20;14.60;99.90
68139;DHT22;54940;50.842;4.410;2022-10-26T03:07:47;14.60;99.90
68139;DHT22;54940;50.842;4.410;2022-10-26T03:10:13;14.60;99.90
68139;DHT22;54940;50.842;4.410;2022-10-26T03:12:39;14.60;99.90
68139;DHT22;54940;50.842;4.410;2022-10-26T03:15:08;14.60;99.90
68139;DHT22;54940;50.842;4.410;2022-10-26T03:17:33;14.60;99.90
68139;DHT22;54940;50.842;4.410;2022-10-26T03:19:59;14.70;99.90
68139;DHT22;54940;50.842;4.410;2022-10-26T03:22:25;14.70;99.90
68139;DHT22;54940;50.842;4.410;2022-10-26T03:24:50;14.70;99.90
68139;DHT22;54940;50.842;4.410;2022-10-26T03:27:16;14.70;99.90
68139;DHT22;54940;50.842;4.410;2022-10-26T03:29:41;14.70;99.90
68139;DHT22;54940;50.842;4.410;2022-10-26T03:32:07;14.70;99.90
68139;DHT22;54940;50.842;4.410;2022-10-26T03:34:33;14.70;99.90
68139;DHT22;54940;50.842;4.410;2022-10-26T03:36:58;14.70;99.90
68139;DHT22;54940;50.842;4.410;2022-10-26T03:39:24;14.70;99.90
68139;DHT22;54940;50.842;4.410;2022-10-26T03:41:50;14.70;99.90
68139;DHT22;54940;50.842;4.410;2022-10-26T03:44:15;14.70;99.90
68139;DHT22;54940;50.842;4.410;2022-10-26T03:46:41;14.70;99.90
68139;DHT22;54940;50.842;4.410;2022-10-26T03:49:07;14.80;99.90
68139;DHT22;54940;50.842;4.410;2022-10-26T03:51:32;14.80;99.90
68139;DHT22;54940;50.842;4.410;2022-10-26T03:53:58;14.80;99.90
68139;DHT22;54940;50.842;4.410;2022-10-26T03:56:24;14.80;99.90
68139;DHT22;54940;50.842;4.410;2022-10-26T03:58:53;14.80;99.90
68139;DHT22;54940;50.842;4.410;2022-10-26T04:01:18;14.80;99.90
68139;DHT22;54940;50.842;4.410;2022-10-26T04:03:44;14.80;99.90
68139;DHT22;54940;50.842;4.410;2022-10-26T04:06:09;14.80;99.90
68139;DHT22;54940;50.842;4.410;2022-10-26T04:08:35;14.80;99.90
68139;DHT22;54940;50.842;4.410;2022-10-26T04:11:01;14.80;99.90
68139;DHT22;54940;50.842;4.410;2022-10-26T04:13:26;14.90;99.90
68139;DHT22;54940;50.842;4.410;2022-10-26T04:15:52;14.90;99.90
68139;DHT22;54940;50.842;4.410;2022-10-26T04:18:18;14.80;99.90
68139;DHT22;54940;50.842;4.410;2022-10-26T04:20:43;14.80;99.90
68139;DHT22;54940;50.842;4.410;2022-10-26T04:23:12;14.90;99.90
68139;DHT22;54940;50.842;4.410;2022-10-26T04:25:38;15.00;99.90
68139;DHT22;54940;50.842;4.410;2022-10-26T04:28:04;14.90;99.90
68139;DHT22;54940;50.842;4.410;2022-10-26T04:30:31;14.90;99.90
68139;DHT22;54940;50.842;4.410;2022-10-26T04:32:56;14.90;99.90
68139;DHT22;54940;50.842;4.410;2022-10-26T04:35:22;14.90;99.90
68139;DHT22;54940;50.842;4.410;2022-10-26T04:37:48;14.90;99.90
68139;DHT22;54940;50.842;4.410;2022-10-26T04:40:15;15.00;99.90
68139;DHT22;54940;50.842;4.410;2022-10-26T04:42:42;14.80;99.90
68139;DHT22;54940;50.842;4.410;2022-10-26T04:45:08;14.90;99.90
68139;DHT22;54940;50.842;4.410;2022-10-26T04:47:34;14.90;99.90
68139;DHT22;54940;50.842;4.410;2022-10-26T04:50:00;14.90;99.90
68139;DHT22;54940;50.842;4.410;2022-10-26T04:52:26;15.00;99.90
68139;DHT22;54940;50.842;4.410;2022-10-26T04:54:51;15.00;99.90
68139;DHT22;54940;50.842;4.410;2022-10-26T04:57:17;15.00;99.90
68139;DHT22;54940;50.842;4.410;2022-10-26T04:59:42;15.00;99.90
68139;DHT22;54940;50.842;4.410;2022-10-26T05:02:08;15.00;99.90
68139;DHT22;54940;50.842;4.410;2022-10-26T05:04:34;14.90;99.90
68139;DHT22;54940;50.842;4.410;2022-10-26T05:06:59;14.90;99.90
68139;DHT22;54940;50.842;4.410;2022-10-26T05:09:25;14.90;99.90
68139;DHT22;54940;50.842;4.410;2022-10-26T05:11:50;14.90;99.90
68139;DHT22;54940;50.842;4.410;2022-10-26T05:14:16;14.90;99.90
68139;DHT22;54940;50.842;4.410;2022-10-26T05:16:42;14.90;99.90
68139;DHT22;54940;50.842;4.410;2022-10-26T05:19:09;14.90;99.90
68139;DHT22;54940;50.842;4.410;2022-10-26T05:21:35;15.00;99.90
68139;DHT22;54940;50.842;4.410;2022-10-26T05:24:00;15.00;99.90
68139;DHT22;54940;50.842;4.410;2022-10-26T05:26:26;15.00;99.90
68139;DHT22;54940;50.842;4.410;2022-10-26T05:28:52;15.00;99.90
68139;DHT22;54940;50.842;4.410;2022-10-26T05:31:18;15.00;99.90
68139;DHT22;54940;50.842;4.410;2022-10-26T05:33:47;15.00;99.90
68139;DHT22;54940;50.842;4.410;2022-10-26T05:36:13;15.00;99.90
68139;DHT22;54940;50.842;4.410;2022-10-26T05:38:38;14.90;99.90
68139;DHT22;54940;50.842;4.410;2022-10-26T05:41:04;14.90;99.90
68139;DHT22;54940;50.842;4.410;2022-10-26T05:43:30;14.80;99.90
68139;DHT22;54940;50.842;4.410;2022-10-26T05:45:56;14.80;99.90
68139;DHT22;54940;50.842;4.410;2022-10-26T05:48:21;14.80;99.90
68139;DHT22;54940;50.842;4.410;2022-10-26T05:50:47;14.80;99.90
68139;DHT22;54940;50.842;4.410;2022-10-26T05:53:13;14.80;99.90
68139;DHT22;54940;50.842;4.410;2022-10-26T05:55:39;14.80;99.90
68139;DHT22;54940;50.842;4.410;2022-10-26T05:58:12;14.70;99.90
68139;DHT22;54940;50.842;4.410;2022-10-26T06:06:21;14.80;99.90
68139;DHT22;54940;50.842;4.410;2022-10-26T06:08:47;14.80;99.90
68139;DHT22;54940;50.842;4.410;2022-10-26T06:11:13;14.80;99.90
68139;DHT22;54940;50.842;4.410;2022-10-26T06:13:39;14.80;99.90
68139;DHT22;54940;50.842;4.410;2022-10-26T06:16:20;14.80;99.90
68139;DHT22;54940;50.842;4.410;2022-10-26T06:18:56;14.80;99.90
68139;DHT22;54940;50.842;4.410;2022-10-26T06:24:47;14.70;99.90
68139;DHT22;54940;50.842;4.410;2022-10-26T06:27:27;14.70;99.90
68139;DHT22;54940;50.842;4.410;2022-10-26T06:30:09;14.70;99.90
68139;DHT22;54940;50.842;4.410;2022-10-26T06:32:42;14.70;99.90
68139;DHT22;54940;50.842;4.410;2022-10-26T06:37:49;14.60;99.90
68139;DHT22;54940;50.842;4.410;2022-10-26T06:40:17;14.60;99.90
68139;DHT22;54940;50.842;4.410;2022-10-26T06:42:44;14.70;99.90
68139;DHT22;54940;50.842;4.410;2022-10-26T06:45:14;14.70;99.90
68139;DHT22;54940;50.842;4.410;2022-10-26T06:48:03;14.80;99.90
68139;DHT22;54940;50.842;4.410;2022-10-26T06:50:36;14.90;99.90
68139;DHT22;54940;50.842;4.410;2022-10-26T06:55:43;14.90;99.90
68139;DHT22;54940;50.842;4.410;2022-10-26T06:58:22;15.00;99.90
68139;DHT22;54940;50.842;4.410;2022-10-26T07:00:50;15.00;99.90
68139;DHT22;54940;50.842;4.410;2022-10-26T07:03:16;15.10;99.90
68139;DHT22;54940;50.842;4.410;2022-10-26T07:05:43;15.10;99.90
68139;DHT22;54940;50.842;4.410;2022-10-26T07:08:09;15.20;99.90
68139;DHT22;54940;50.842;4.410;2022-10-26T07:10:34;15.10;99.90
68139;DHT22;54940;50.842;4.410;2022-10-26T07:13:06;15.10;99.90
68139;DHT22;54940;50.842;4.410;2022-10-26T07:15:36;15.20;99.90
68139;DHT22;54940;50.842;4.410;2022-10-26T07:18:04;15.20;99.90
68139;DHT22;54940;50.842;4.410;2022-10-26T07:20:31;15.10;99.90
68139;DHT22;54940;50.842;4.410;2022-10-26T07:22:57;15.20;99.90
68139;DHT22;54940;50.842;4.410;2022-10-26T07:25:24;15.30;99.90
68139;DHT22;54940;50.842;4.410;2022-10-26T07:27:50;15.40;99.90
68139;DHT22;54940;50.842;4.410;2022-10-26T07:30:16;15.40;99.90
68139;DHT22;54940;50.842;4.410;2022-10-26T07:32:42;15.40;99.90
68139;DHT22;54940;50.842;4.410;2022-10-26T07:35:08;15.40;99.90
68139;DHT22;54940;50.842;4.410;2022-10-26T07:37:34;15.40;99.90
68139;DHT22;54940;50.842;4.410;2022-10-26T07:40:00;15.50;99.90
68139;DHT22;54940;50.842;4.410;2022-10-26T07:42:26;15.50;99.90
68139;DHT22;54940;50.842;4.410;2022-10-26T07:44:53;15.60;99.90
68139;DHT22;54940;50.842;4.410;2022-10-26T07:47:18;15.60;99.90
68139;DHT22;54940;50.842;4.410;2022-10-26T07:49:44;15.70;99.90
68139;DHT22;54940;50.842;4.410;2022-10-26T07:52:09;15.70;99.90
68139;DHT22;54940;50.842;4.410;2022-10-26T07:54:35;15.70;99.90
68139;DHT22;54940;50.842;4.410;2022-10-26T07:57:01;15.70;99.90
68139;DHT22;54940;50.842;4.410;2022-10-26T07:59:27;15.70;99.90
68139;DHT22;54940;50.842;4.410;2022-10-26T08:01:53;15.80;99.90
68139;DHT22;54940;50.842;4.410;2022-10-26T08:04:19;15.80;99.90
68139;DHT22;54940;50.842;4.410;2022-10-26T08:06:44;15.90;99.90
68139;DHT22;54940;50.842;4.410;2022-10-26T08:09:11;15.90;99.90
68139;DHT22;54940;50.842;4.410;2022-10-26T08:11:37;15.90;99.90
68139;DHT22;54940;50.842;4.410;2022-10-26T08:14:03;16.00;99.90
68139;DHT22;54940;50.842;4.410;2022-10-26T08:16:29;16.00;99.90
68139;DHT22;54940;50.842;4.410;2022-10-26T08:18:55;16.00;99.90
68139;DHT22;54940;50.842;4.410;2022-10-26T08:21:21;16.10;99.90
68139;DHT22;54940;50.842;4.410;2022-10-26T08:23:47;16.10;99.90
68139;DHT22;54940;50.842;4.410;2022-10-26T08:26:12;16.10;99.90
68139;DHT22;54940;50.842;4.410;2022-10-26T08:28:39;16.10;99.90
68139;DHT22;54940;50.842;4.410;2022-10-26T08:31:05;16.20;99.90
68139;DHT22;54940;50.842;4.410;2022-10-26T08:33:30;16.30;99.90
68139;DHT22;54940;50.842;4.410;2022-10-26T08:36:01;16.30;99.90
68139;DHT22;54940;50.842;4.410;2022-10-26T08:38:28;16.40;99.90
68139;DHT22;54940;50.842;4.410;2022-10-26T08:40:56;16.40;99.90
68139;DHT22;54940;50.842;4.410;2022-10-26T08:43:32;16.50;99.90
68139;DHT22;54940;50.842;4.410;2022-10-26T08:46:12;16.50;99.90
68139;DHT22;54940;50.842;4.410;2022-10-26T08:48:43;16.50;99.90
68139;DHT22;54940;50.842;4.410;2022-10-26T08:51:34;16.40;99.90
68139;DHT22;54940;50.842;4.410;2022-10-26T08:56:45;16.40;99.90
68139;DHT22;54940;50.842;4.410;2022-10-26T09:02:13;16.60;99.90
68139;DHT22;54940;50.842;4.410;2022-10-26T09:04:39;16.70;99.90
68139;DHT22;54940;50.842;4.410;2022-10-26T09:07:14;16.70;99.90
68139;DHT22;54940;50.842;4.410;2022-10-26T09:12:41;16.90;99.90
68139;DHT22;54940;50.842;4.410;2022-10-26T09:24:00;17.10;99.90
68139;DHT22;54940;50.842;4.410;2022-10-26T09:26:39;17.10;99.90
68139;DHT22;54940;50.842;4.410;2022-10-26T09:29:11;17.10;99.90
68139;DHT22;54940;50.842;4.410;2022-10-26T09:31:46;17.20;99.90
68139;DHT22;54940;50.842;4.410;2022-10-26T09:34:43;17.20;99.90
68139;DHT22;54940;50.842;4.410;2022-10-26T09:37:14;17.30;99.90
68139;DHT22;54940;50.842;4.410;2022-10-26T09:39:57;17.30;99.90
68139;DHT22;54940;50.842;4.410;2022-10-26T09:42:45;17.30;99.90
68139;DHT22;54940;50.842;4.410;2022-10-26T09:45:19;17.40;99.90
68139;DHT22;54940;50.842;4.410;2022-10-26T09:47:51;17.40;99.90
68139;DHT22;54940;50.842;4.410;2022-10-26T09:52:47;17.50;99.90
68139;DHT22;54940;50.842;4.410;2022-10-26T09:55:13;17.40;99.90
68139;DHT22;54940;50.842;4.410;2022-10-26T09:57:41;17.40;99.90
68139;DHT22;54940;50.842;4.410;2022-10-26T10:00:12;17.50;99.90
68139;DHT22;54940;50.842;4.410;2022-10-26T10:02:41;17.60;99.90
68139;DHT22;54940;50.842;4.410;2022-10-26T10:11:04;17.60;99.90
68139;DHT22;54940;50.842;4.410;2022-10-26T10:13:32;17.70;99.90
68139;DHT22;54940;50.842;4.410;2022-10-26T10:18:53;17.80;99.90
68139;DHT22;54940;50.842;4.410;2022-10-26T10:21:19;17.80;99.90
68139;DHT22;54940;50.842;4.410;2022-10-26T10:23:48;17.80;99.90
68139;DHT22;54940;50.842;4.410;2022-10-26T10:26:16;17.80;99.90
68139;DHT22;54940;50.842;4.410;2022-10-26T10:28:42;17.90;99.90
68139;DHT22;54940;50.842;4.410;2022-10-26T10:31:22;18.10;99.90
68139;DHT22;54940;50.842;4.410;2022-10-26T10:33:51;18.10;99.90
68139;DHT22;54940;50.842;4.410;2022-10-26T10:36:19;18.20;99.90
68139;DHT22;54940;50.842;4.410;2022-10-26T10:38:47;18.10;99.90
68139;DHT22;54940;50.842;4.410;2022-10-26T10:41:32;18.10;99.90
68139;DHT22;54940;50.842;4.410;2022-10-26T10:44:25;18.20;99.90
68139;DHT22;54940;50.842;4.410;2022-10-26T10:47:03;18.20;99.90
68139;DHT22;54940;50.842;4.410;2022-10-26T10:49:30;18.20;99.90
68139;DHT22;54940;50.842;4.410;2022-10-26T10:51:56;18.20;99.90
68139;DHT22;54940;50.842;4.410;2022-10-26T10:57:21;18.40;99.90
68139;DHT22;54940;50.842;4.410;2022-10-26T11:00:00;18.40;99.90
68139;DHT22;54940;50.842;4.410;2022-10-26T11:03:03;18.30;99.90
68139;DHT22;54940;50.842;4.410;2022-10-26T11:05:58;18.40;99.90
68139;DHT22;54940;50.842;4.410;2022-10-26T11:08:45;18.30;99.90
68139;DHT22;54940;50.842;4.410;2022-10-26T11:11:32;18.30;99.90
68139;DHT22;54940;50.842;4.410;2022-10-26T11:19:50;18.40;99.90
68139;DHT22;54940;50.842;4.410;2022-10-26T11:25:26;18.40;99.90
68139;DHT22;54940;50.842;4.410;2022-10-26T11:27:56;18.40;99.90
68139;DHT22;54940;50.842;4.410;2022-10-26T11:30:24;18.40;99.90
68139;DHT22;54940;50.842;4.410;2022-10-26T11:32:54;18.30;99.90
68139;DHT22;54940;50.842;4.410;2022-10-26T11:35:23;18.30;99.90
68139;DHT22;54940;50.842;4.410;2022-10-26T11:38:13;18.30;99.90
68139;DHT22;54940;50.842;4.410;2022-10-26T11:41:05;18.30;99.90
68139;DHT22;54940;50.842;4.410;2022-10-26T11:49:01;18.60;99.90
68139;DHT22;54940;50.842;4.410;2022-10-26T11:51:37;18.80;99.90
68139;DHT22;54940;50.842;4.410;2022-10-26T11:54:23;19.00;99.90
68139;DHT22;54940;50.842;4.410;2022-10-26T11:56:52;19.10;99.90
68139;DHT22;54940;50.842;4.410;2022-10-26T11:59:21;19.40;99.90
68139;DHT22;54940;50.842;4.410;2022-10-26T12:01:51;19.50;99.90
68139;DHT22;54940;50.842;4.410;2022-10-26T12:04:20;19.50;99.90
68139;DHT22;54940;50.842;4.410;2022-10-26T12:06:50;19.60;99.90
68139;DHT22;54940;50.842;4.410;2022-10-26T12:09:19;19.60;99.90
68139;DHT22;54940;50.842;4.410;2022-10-26T12:11:55;19.70;99.90
68139;DHT22;54940;50.842;4.410;2022-10-26T12:17:29;19.70;99.90
68139;DHT22;54940;50.842;4.410;2022-10-26T12:22:44;19.70;99.90
68139;DHT22;54940;50.842;4.410;2022-10-26T12:32:48;19.60;99.90
68139;DHT22;54940;50.842;4.410;2022-10-26T12:35:37;19.60;99.90
68139;DHT22;54940;50.842;4.410;2022-10-26T12:43:31;19.60;99.90
68139;DHT22;54940;50.842;4.410;2022-10-26T12:46:36;19.70;99.90
68139;DHT22;54940;50.842;4.410;2022-10-26T12:49:02;19.70;99.90
68139;DHT22;54940;50.842;4.410;2022-10-26T12:59:28;19.70;99.90
68139;DHT22;54940;50.842;4.410;2022-10-26T13:02:27;19.60;99.90
68139;DHT22;54940;50.842;4.410;2022-10-26T13:05:10;19.60;99.90
68139;DHT22;54940;50.842;4.410;2022-10-26T13:07:39;19.60;99.90
68139;DHT22;54940;50.842;4.410;2022-10-26T13:10:17;19.50;99.90
68139;DHT22;54940;50.842;4.410;2022-10-26T13:15:38;19.50;99.90
68139;DHT22;54940;50.842;4.410;2022-10-26T13:18:15;19.60;99.90
68139;DHT22;54940;50.842;4.410;2022-10-26T13:21:17;19.60;99.90
68139;DHT22;54940;50.842;4.410;2022-10-26T13:23:46;19.50;99.90
68139;DHT22;54940;50.842;4.410;2022-10-26T13:26:16;19.40;99.90
68139;DHT22;54940;50.842;4.410;2022-10-26T13:28:48;19.50;99.90
68139;DHT22;54940;50.842;4.410;2022-10-26T13:36:33;19.50;99.90
68139;DHT22;54940;50.842;4.410;2022-10-26T13:39:05;19.60;99.90
68139;DHT22;54940;50.842;4.410;2022-10-26T13:41:37;19.60;99.90
68139;DHT22;54940;50.842;4.410;2022-10-26T13:44:05;19.70;99.90
68139;DHT22;54940;50.842;4.410;2022-10-26T13:46:38;19.70;99.90
68139;DHT22;54940;50.842;4.410;2022-10-26T13:49:20;19.70;99.90
68139;DHT22;54940;50.842;4.410;2022-10-26T13:51:49;19.60;99.90
68139;DHT22;54940;50.842;4.410;2022-10-26T13:54:23;19.70;99.90
68139;DHT22;54940;50.842;4.410;2022-10-26T13:59:44;19.70;99.90
68139;DHT22;54940;50.842;4.410;2022-10-26T14:04:45;19.80;99.90
68139;DHT22;54940;50.842;4.410;2022-10-26T14:07:18;19.80;99.90
68139;DHT22;54940;50.842;4.410;2022-10-26T14:09:52;19.80;99.90
68139;DHT22;54940;50.842;4.410;2022-10-26T14:12:18;19.70;99.90
68139;DHT22;54940;50.842;4.410;2022-10-26T14:14:44;19.70;99.90
68139;DHT22;54940;50.842;4.410;2022-10-26T14:17:28;19.80;99.90
68139;DHT22;54940;50.842;4.410;2022-10-26T14:19:54;19.80;99.90
68139;DHT22;54940;50.842;4.410;2022-10-26T14:22:22;19.80;99.90
68139;DHT22;54940;50.842;4.410;2022-10-26T14:24:59;19.90;99.90
68139;DHT22;54940;50.842;4.410;2022-10-26T14:27:37;19.80;99.90
68139;DHT22;54940;50.842;4.410;2022-10-26T14:30:23;19.70;99.90
68139;DHT22;54940;50.842;4.410;2022-10-26T14:32:51;19.70;99.90
68139;DHT22;54940;50.842;4.410;2022-10-26T14:35:19;19.80;99.90
68139;DHT22;54940;50.842;4.410;2022-10-26T14:38:01;19.70;99.90
68139;DHT22;54940;50.842;4.410;2022-10-26T14:40:33;19.70;99.90
68139;DHT22;54940;50.842;4.410;2022-10-26T14:43:01;19.70;99.90
68139;DHT22;54940;50.842;4.410;2022-10-26T14:47:59;19.80;99.90
68139;DHT22;54940;50.842;4.410;2022-10-26T14:50:26;19.90;99.90
68139;DHT22;54940;50.842;4.410;2022-10-26T14:52:58;19.90;99.90
68139;DHT22;54940;50.842;4.410;2022-10-26T14:55:25;20.00;99.90
68139;DHT22;54940;50.842;4.410;2022-10-26T14:57:52;20.00;99.90
68139;DHT22;54940;50.842;4.410;2022-10-26T15:00:30;19.90;99.90
68139;DHT22;54940;50.842;4.410;2022-10-26T15:02:56;19.80;99.90
68139;DHT22;54940;50.842;4.410;2022-10-26T15:07:49;19.80;99.90
68139;DHT22;54940;50.842;4.410;2022-10-26T15:15:42;19.80;99.90
68139;DHT22;54940;50.842;4.410;2022-10-26T15:18:23;19.70;99.90
68139;DHT22;54940;50.842;4.410;2022-10-26T15:20:50;19.80;99.90
68139;DHT22;54940;50.842;4.410;2022-10-26T15:23:17;19.70;99.90
68139;DHT22;54940;50.842;4.410;2022-10-26T15:25:55;19.70;99.90
68139;DHT22;54940;50.842;4.410;2022-10-26T15:36:29;19.60;99.90
68139;DHT22;54940;50.842;4.410;2022-10-26T15:38:56;19.50;99.90
68139;DHT22;54940;50.842;4.410;2022-10-26T15:41:34;19.40;99.90
68139;DHT22;54940;50.842;4.410;2022-10-26T15:44:03;19.40;99.90
68139;DHT22;54940;50.842;4.410;2022-10-26T15:46:34;19.40;99.90
68139;DHT22;54940;50.842;4.410;2022-10-26T15:49:02;19.40;99.90
68139;DHT22;54940;50.842;4.410;2022-10-26T15:51:29;19.40;99.90
68139;DHT22;54940;50.842;4.410;2022-10-26T15:54:00;19.40;99.90
68139;DHT22;54940;50.842;4.410;2022-10-26T15:56:26;19.30;99.90
68139;DHT22;54940;50.842;4.410;2022-10-26T15:58:53;19.30;99.90
68139;DHT22;54940;50.842;4.410;2022-10-26T16:01:21;19.40;99.90
68139;DHT22;54940;50.842;4.410;2022-10-26T16:03:48;19.30;99.90
68139;DHT22;54940;50.842;4.410;2022-10-26T16:06:27;19.30;99.90
68139;DHT22;54940;50.842;4.410;2022-10-26T16:08:56;19.40;99.90
68139;DHT22;54940;50.842;4.410;2022-10-26T16:11:23;19.30;99.90
68139;DHT22;54940;50.842;4.410;2022-10-26T16:13:48;19.20;99.90
68139;DHT22;54940;50.842;4.410;2022-10-26T16:16:18;19.30;99.90
68139;DHT22;54940;50.842;4.410;2022-10-26T16:18:44;19.20;99.90
68139;DHT22;54940;50.842;4.410;2022-10-26T16:21:12;19.10;99.90
68139;DHT22;54940;50.842;4.410;2022-10-26T16:23:38;19.20;99.90
68139;DHT22;54940;50.842;4.410;2022-10-26T16:26:05;19.20;99.90
68139;DHT22;54940;50.842;4.410;2022-10-26T16:28:31;19.10;99.90
68139;DHT22;54940;50.842;4.410;2022-10-26T16:31:00;19.00;99.90
68139;DHT22;54940;50.842;4.410;2022-10-26T16:33:26;19.10;99.90
68139;DHT22;54940;50.842;4.410;2022-10-26T16:35:55;19.00;99.90
68139;DHT22;54940;50.842;4.410;2022-10-26T16:38:21;19.00;99.90
68139;DHT22;54940;50.842;4.410;2022-10-26T16:40:47;18.90;99.90
68139;DHT22;54940;50.842;4.410;2022-10-26T16:43:12;18.80;99.90
68139;DHT22;54940;50.842;4.410;2022-10-26T16:45:39;18.80;99.90
68139;DHT22;54940;50.842;4.410;2022-10-26T16:48:07;18.80;99.90
68139;DHT22;54940;50.842;4.410;2022-10-26T16:50:38;18.80;99.90
68139;DHT22;54940;50.842;4.410;2022-10-26T16:53:04;18.80;99.90
68139;DHT22;54940;50.842;4.410;2022-10-26T16:55:30;18.90;99.90
68139;DHT22;54940;50.842;4.410;2022-10-26T16:57:55;18.80;99.90
68139;DHT22;54940;50.842;4.410;2022-10-26T17:00:21;18.90;99.90
68139;DHT22;54940;50.842;4.410;2022-10-26T17:02:46;18.80;99.90
68139;DHT22;54940;50.842;4.410;2022-10-26T17:05:12;18.70;99.90
68139;DHT22;54940;50.842;4.410;2022-10-26T17:07:38;18.80;99.90
68139;DHT22;54940;50.842;4.410;2022-10-26T17:10:03;18.80;99.90
68139;DHT22;54940;50.842;4.410;2022-10-26T17:12:29;18.70;99.90
68139;DHT22;54940;50.842;4.410;2022-10-26T17:14:55;18.70;99.90
68139;DHT22;54940;50.842;4.410;2022-10-26T17:17:23;18.70;99.90
68139;DHT22;54940;50.842;4.410;2022-10-26T17:19:49;18.70;99.90
68139;DHT22;54940;50.842;4.410;2022-10-26T17:22:14;18.50;99.90
68139;DHT22;54940;50.842;4.410;2022-10-26T17:24:40;18.50;99.90
68139;DHT22;54940;50.842;4.410;2022-10-26T17:27:06;18.40;99.90
68139;DHT22;54940;50.842;4.410;2022-10-26T17:29:31;18.30;99.90
68139;DHT22;54940;50.842;4.410;2022-10-26T17:31:57;18.40;99.90
68139;DHT22;54940;50.842;4.410;2022-10-26T17:34:22;18.40;99.90
68139;DHT22;54940;50.842;4.410;2022-10-26T17:36:48;18.40;99.90
68139;DHT22;54940;50.842;4.410;2022-10-26T17:39:14;18.30;99.90
68139;DHT22;54940;50.842;4.410;2022-10-26T17:41:40;18.30;99.90
68139;DHT22;54940;50.842;4.410;2022-10-26T17:44:06;18.20;99.90
68139;DHT22;54940;50.842;4.410;2022-10-26T17:46:31;18.20;99.90
68139;DHT22;54940;50.842;4.410;2022-10-26T17:48:59;18.20;99.90
68139;DHT22;54940;50.842;4.410;2022-10-26T17:51:26;18.20;99.90
68139;DHT22;54940;50.842;4.410;2022-10-26T17:53:53;18.30;99.90
68139;DHT22;54940;50.842;4.410;2022-10-26T17:56:21;18.30;99.90
68139;DHT22;54940;50.842;4.410;2022-10-26T17:59:08;18.30;99.90
68139;DHT22;54940;50.842;4.410;2022-10-26T18:01:35;18.20;99.90
68139;DHT22;54940;50.842;4.410;2022-10-26T18:04:00;18.20;99.90
68139;DHT22;54940;50.842;4.410;2022-10-26T18:06:26;18.10;99.90
68139;DHT22;54940;50.842;4.410;2022-10-26T18:08:52;18.10;99.90
68139;DHT22;54940;50.842;4.410;2022-10-26T18:11:21;18.00;99.90
68139;DHT22;54940;50.842;4.410;2022-10-26T18:13:47;18.00;99.90